Montego Bay, Jamaica
Current Conditions -  °F | °C
As of 10:00 AM on Sunday 21 Dec 2014 (Local Time) from MKJS Reporting Station
Few Clouds Few Clouds  
Wind Chill: 82°   Ceiling: Unl
Heat Index: 89°   Visibility: 6mi
Dew Point: 75°   Wind: 14mph
Humidity: 79%   Direction: 80°E
Pressure: 30.03"   Gusts: NA
Location:  18.47°N, 77.92°W
Report Text: MKJS 211500Z 08012KT 9999 FEW024 28/24 Q1017
Loading
Personal Weather Stations






























Interactive Weather Map New forecast layout! Learn more

10-Day Weather Forecast

Advertisements
Track Severe Weather on mobile